createdAt,value
2018-05-26T00:02:06.152Z,73.37
2018-05-26T00:04:34.574Z,73.88
2018-05-26T00:07:02.916Z,75.01
2018-05-26T00:09:31.273Z,75.63
2018-05-26T00:11:59.593Z,75.58
2018-05-26T00:14:27.931Z,75.99
2018-05-26T00:16:56.332Z,74.52
2018-05-26T00:19:24.788Z,76.39
2018-05-26T00:21:53.179Z,75.61
2018-05-26T00:24:22.351Z,74.85
2018-05-26T00:26:51.501Z,73.85
2018-05-26T00:29:19.863Z,74.62
2018-05-26T00:31:48.989Z,74.42
2018-05-26T00:34:17.397Z,75.02
2018-05-26T00:36:45.758Z,76.05
2018-05-26T00:39:14.178Z,75.26
2018-05-26T00:41:42.560Z,74.96
2018-05-26T00:44:10.896Z,75.87
2018-05-26T00:46:39.303Z,76.00
2018-05-26T00:49:08.469Z,74.95
2018-05-26T00:51:36.832Z,73.72
2018-05-26T00:54:05.225Z,75.73
2018-05-26T00:56:33.539Z,76.42
2018-05-26T00:59:01.956Z,75.87
2018-05-26T01:01:30.317Z,76.02
2018-05-26T01:03:58.677Z,76.75
2018-05-26T01:06:27.801Z,77.06
2018-05-26T01:08:56.195Z,76.11
2018-05-26T01:11:24.655Z,73.79
2018-05-26T01:13:53.060Z,72.17
2018-05-26T01:16:21.395Z,74.19
2018-05-26T01:18:49.727Z,75.84
2018-05-26T01:21:18.141Z,77.39
2018-05-26T01:23:46.556Z,77.22
2018-05-26T01:26:15.288Z,76.86
2018-05-26T01:28:43.616Z,73.92
2018-05-26T01:31:12.776Z,72.06
2018-05-26T01:33:41.141Z,71.42
2018-05-26T01:36:09.549Z,74.03
2018-05-26T01:38:37.955Z,76.82
2018-05-26T01:41:06.310Z,77.18
2018-05-26T01:43:34.709Z,76.88
2018-05-26T01:46:03.088Z,76.88
2018-05-26T01:48:31.495Z,76.52
2018-05-26T01:50:59.827Z,76.51
2018-05-26T01:53:28.203Z,76.95
2018-05-26T01:55:56.594Z,77.58
2018-05-26T01:58:25.035Z,77.26
2018-05-26T02:00:53.378Z,77.00
2018-05-26T02:03:21.800Z,78.07
2018-05-26T02:05:50.138Z,78.00
2018-05-26T02:08:18.489Z,77.79
2018-05-26T02:10:47.600Z,76.16
2018-05-26T02:13:16.727Z,75.25
2018-05-26T02:15:45.110Z,72.94
2018-05-26T02:18:13.448Z,72.49
2018-05-26T02:20:41.844Z,75.30
2018-05-26T02:23:10.174Z,76.14
2018-05-26T02:25:39.348Z,75.56
2018-05-26T02:28:07.667Z,76.56
2018-05-26T02:30:36.803Z,76.94
2018-05-26T02:33:05.194Z,77.85
2018-05-26T02:35:33.582Z,77.54
2018-05-26T02:38:01.990Z,75.89
2018-05-26T02:40:30.377Z,74.75
2018-05-26T02:42:58.804Z,72.69
2018-05-26T02:45:27.199Z,74.45
2018-05-26T02:47:55.553Z,76.23
2018-05-26T02:50:23.944Z,76.55
2018-05-26T02:52:52.313Z,76.87
2018-05-26T02:55:21.481Z,76.82
2018-05-26T02:57:49.795Z,76.01
2018-05-26T03:00:18.923Z,74.89
2018-05-26T03:02:47.299Z,74.59
2018-05-26T03:05:21.203Z,74.73
2018-05-26T03:07:54.959Z,75.27
2018-05-26T03:10:28.931Z,73.35
2018-05-26T03:13:02.883Z,73.32
2018-05-26T03:15:31.232Z,75.36
2018-05-26T03:18:01.437Z,75.55
2018-05-26T03:20:29.855Z,77.14
2018-05-26T03:22:58.179Z,76.24
2018-05-26T03:25:26.524Z,75.04
2018-05-26T03:27:54.879Z,77.98
2018-05-26T03:30:24.044Z,78.00
2018-05-26T03:32:52.429Z,79.36
2018-05-26T03:35:20.828Z,80.18
2018-05-26T03:37:49.235Z,78.93
2018-05-26T03:40:17.579Z,78.92
2018-05-26T03:42:46.255Z,77.29
2018-05-26T03:45:15.419Z,75.47
2018-05-26T03:47:43.819Z,73.66
2018-05-26T03:50:12.168Z,75.23
2018-05-26T03:52:41.279Z,77.66
2018-05-26T03:58:42.463Z,77.36
2018-05-26T04:01:11.643Z,75.90
2018-05-26T04:03:40.048Z,75.42
2018-05-26T04:06:09.551Z,74.11
2018-05-26T04:08:37.959Z,76.84
2018-05-26T04:11:07.130Z,77.00
2018-05-26T04:13:35.472Z,76.14
2018-05-26T04:16:04.669Z,75.78
2018-05-26T04:18:33.836Z,77.96
2018-05-26T04:21:02.172Z,78.29
2018-05-26T04:23:30.556Z,78.60
2018-05-26T04:25:58.973Z,78.12
2018-05-26T04:28:28.131Z,78.38
2018-05-26T04:30:56.483Z,78.58
2018-05-26T04:33:24.834Z,78.22
2018-05-26T04:35:53.261Z,77.61
2018-05-26T04:38:22.415Z,78.80
2018-05-26T04:40:50.821Z,79.30
2018-05-26T04:43:19.170Z,78.87
2018-05-26T04:45:47.645Z,77.88
2018-05-26T04:48:16.276Z,75.63
2018-05-26T04:50:45.464Z,74.00
2018-05-26T04:53:13.863Z,73.65
2018-05-26T04:55:42.194Z,73.72
2018-05-26T04:58:10.572Z,73.72
2018-05-26T05:00:38.958Z,74.18
2018-05-26T05:03:07.323Z,73.70
2018-05-26T05:05:36.463Z,72.82
2018-05-26T05:08:05.538Z,73.28
2018-05-26T05:10:33.899Z,73.44
2018-05-26T05:13:02.289Z,74.71
2018-05-26T05:15:30.665Z,76.33
2018-05-26T05:17:59.019Z,74.54
2018-05-26T05:20:27.451Z,74.16
2018-05-26T05:23:09.849Z,73.46
2018-05-26T05:25:38.469Z,73.60
2018-05-26T05:28:06.846Z,74.21
2018-05-26T05:30:35.993Z,73.80
2018-05-26T05:33:04.407Z,73.86
2018-05-26T05:35:33.931Z,72.97
2018-05-26T05:38:02.415Z,73.14
2018-05-26T05:40:31.071Z,76.49
2018-05-26T05:43:00.219Z,79.15
2018-05-26T05:45:28.810Z,77.25
2018-05-26T05:47:57.284Z,76.41
2018-05-26T05:50:25.720Z,75.51
2018-05-26T05:52:54.146Z,74.98
2018-05-26T05:55:22.554Z,77.63
2018-05-26T05:57:50.967Z,76.46
2018-05-26T06:00:19.333Z,75.46
2018-05-26T06:02:47.764Z,77.07
2018-05-26T06:05:16.147Z,77.38
2018-05-26T06:07:44.483Z,77.83
2018-05-26T06:10:12.876Z,77.06
2018-05-26T06:12:41.243Z,78.38
2018-05-26T06:15:09.690Z,78.99
2018-05-26T06:17:39.731Z,77.33
2018-05-26T06:20:08.136Z,78.84
2018-05-26T06:22:36.575Z,79.49
2018-05-26T06:25:05.045Z,77.99
2018-05-26T06:27:33.677Z,76.84
2018-05-26T06:30:02.401Z,79.92
2018-05-26T06:32:30.858Z,79.33
2018-05-26T06:34:59.232Z,78.78
2018-05-26T06:37:27.627Z,78.64
2018-05-26T06:39:56.039Z,77.86
2018-05-26T06:42:24.426Z,77.16
2018-05-26T06:44:52.847Z,77.61
2018-05-26T06:47:21.257Z,77.16
2018-05-26T06:49:49.667Z,78.35
2018-05-26T06:52:18.051Z,77.41
2018-05-26T06:54:46.461Z,76.42
2018-05-26T06:57:14.851Z,76.95
2018-05-26T06:59:43.220Z,76.53
2018-05-26T07:02:11.603Z,75.79
2018-05-26T07:04:40.029Z,76.01
2018-05-26T07:07:08.420Z,74.89
2018-05-26T07:09:48.038Z,74.44
2018-05-26T07:12:19.198Z,73.72
2018-05-26T07:14:47.519Z,72.14
2018-05-26T07:17:15.872Z,72.00
2018-05-26T07:19:44.235Z,71.51
2018-05-26T07:22:13.541Z,71.34
2018-05-26T07:24:41.956Z,70.62
2018-05-26T07:27:16.551Z,70.67
2018-05-26T07:29:45.129Z,70.96
2018-05-26T07:32:13.539Z,71.18
2018-05-26T07:34:41.923Z,70.65
2018-05-26T07:37:10.290Z,69.75
2018-05-26T07:39:53.445Z,68.08
2018-05-26T07:42:21.818Z,68.45
2018-05-26T07:44:50.198Z,68.64
2018-05-26T07:47:18.559Z,67.90
2018-05-26T07:49:47.389Z,67.87
2018-05-26T07:52:15.790Z,66.32
2018-05-26T07:54:44.195Z,65.44
2018-05-26T07:57:12.548Z,66.76
2018-05-26T07:59:41.978Z,66.61
2018-05-26T08:02:10.484Z,67.15
2018-05-26T08:04:38.877Z,66.49
2018-05-26T08:07:07.251Z,66.29
2018-05-26T08:09:35.574Z,65.61
2018-05-26T08:12:04.735Z,66.09
2018-05-26T08:14:33.087Z,66.17
2018-05-26T08:17:01.491Z,66.12
2018-05-26T08:19:29.916Z,65.32
2018-05-26T08:21:58.291Z,64.64
2018-05-26T08:24:26.662Z,63.85
2018-05-26T08:26:55.041Z,65.43
2018-05-26T08:29:23.397Z,64.76
2018-05-26T08:31:51.725Z,64.09
2018-05-26T08:34:20.108Z,62.30
2018-05-26T08:36:49.236Z,62.75
2018-05-26T08:39:17.774Z,61.76
2018-05-26T08:41:46.121Z,60.91
2018-05-26T08:44:14.514Z,60.29
2018-05-26T08:46:42.875Z,58.98
2018-05-26T08:49:11.252Z,58.72
2018-05-26T08:51:39.587Z,59.82
2018-05-26T08:54:10.477Z,57.75
2018-05-26T08:56:38.867Z,57.43
2018-05-26T08:59:07.243Z,58.20
2018-05-26T09:01:35.587Z,57.13
2018-05-26T09:04:04.007Z,58.59
2018-05-26T09:06:32.368Z,57.64
2018-05-26T09:09:00.716Z,56.72
2018-05-26T09:11:29.092Z,53.96
2018-05-26T09:13:57.468Z,54.41
2018-05-26T09:16:25.819Z,56.98
2018-05-26T09:18:54.161Z,55.87
2018-05-26T09:21:22.503Z,55.68
2018-05-26T09:23:50.884Z,56.11
2018-05-26T09:26:19.314Z,54.83
2018-05-26T09:28:47.726Z,55.35
2018-05-26T09:31:16.148Z,54.71
2018-05-26T09:33:44.552Z,52.68
2018-05-26T09:36:12.952Z,55.07
2018-05-26T09:38:51.147Z,55.06
2018-05-26T09:41:29.618Z,52.43
2018-05-26T09:43:58.101Z,52.45
2018-05-26T09:46:26.568Z,54.25
2018-05-26T09:48:54.967Z,53.40
2018-05-26T09:51:23.446Z,51.18
2018-05-26T09:53:52.670Z,52.23
2018-05-26T09:59:13.015Z,49.47
2018-05-26T10:01:41.445Z,51.63
2018-05-26T10:04:09.935Z,50.82
2018-05-26T10:06:38.284Z,49.72
2018-05-26T10:09:06.745Z,51.14
2018-05-26T10:11:35.262Z,49.77
2018-05-26T10:14:03.756Z,47.80
2018-05-26T10:16:32.191Z,50.30
2018-05-26T10:19:00.630Z,45.98
2018-05-26T10:21:29.003Z,46.81
2018-05-26T10:23:57.480Z,48.76
2018-05-26T10:26:25.938Z,48.48
2018-05-26T10:28:54.415Z,49.72
2018-05-26T10:31:22.818Z,49.83
2018-05-26T10:33:51.250Z,49.38
2018-05-26T10:36:19.655Z,49.20
2018-05-26T10:38:48.100Z,48.49
2018-05-26T10:41:16.566Z,46.31
2018-05-26T10:43:45.057Z,46.68
2018-05-26T10:46:25.884Z,43.41
2018-05-26T10:48:54.317Z,45.36
2018-05-26T10:51:22.768Z,43.17
2018-05-26T10:53:51.338Z,41.80
2018-05-26T10:56:19.885Z,44.88
2018-05-26T10:58:48.658Z,46.50
2018-05-26T11:01:17.135Z,43.01
2018-05-26T11:03:45.573Z,44.20
2018-05-26T11:06:14.084Z,43.61
2018-05-26T11:08:42.621Z,42.50
2018-05-26T11:14:21.297Z,44.98
2018-05-26T11:16:49.693Z,42.86
2018-05-26T11:19:18.087Z,43.03
2018-05-26T11:21:46.411Z,44.32
2018-05-26T11:24:26.665Z,43.65
2018-05-26T11:26:55.521Z,44.62
2018-05-26T11:29:23.911Z,45.68
2018-05-26T11:32:02.628Z,45.88
2018-05-26T11:34:37.664Z,44.24
2018-05-26T11:37:06.019Z,44.18
2018-05-26T11:42:57.926Z,43.84
2018-05-26T11:45:29.103Z,43.34
2018-05-26T11:47:57.443Z,42.84
2018-05-26T11:50:25.769Z,44.29
2018-05-26T11:52:54.158Z,42.48
2018-05-26T11:55:22.596Z,41.88
2018-05-26T11:57:50.980Z,43.54
2018-05-26T12:00:20.587Z,41.94
2018-05-26T12:02:49.065Z,42.58
2018-05-26T12:05:17.725Z,43.70
2018-05-26T12:07:55.554Z,44.44
2018-05-26T12:10:24.531Z,43.72
2018-05-26T12:12:52.947Z,43.52
2018-05-26T12:15:21.284Z,45.64
2018-05-26T12:17:49.683Z,44.29
2018-05-26T12:20:18.260Z,43.44
2018-05-26T12:22:46.620Z,44.30
2018-05-26T12:25:15.064Z,43.46
2018-05-26T12:27:43.443Z,44.18
2018-05-26T12:30:11.809Z,43.30
2018-05-26T12:32:40.147Z,43.08
2018-05-26T12:38:18.675Z,43.83
2018-05-26T12:40:47.039Z,43.03
2018-05-26T12:43:15.459Z,43.52
2018-05-26T12:45:43.793Z,42.64
2018-05-26T12:48:12.984Z,42.18
2018-05-26T12:50:41.349Z,42.43
2018-05-26T12:53:09.712Z,42.12
2018-05-26T12:55:38.156Z,41.62
2018-05-26T12:58:06.500Z,42.34
2018-05-26T13:00:34.887Z,40.98
2018-05-26T13:03:03.277Z,40.47
2018-05-26T13:05:31.656Z,41.47
2018-05-26T13:08:00.827Z,41.61
2018-05-26T13:10:31.882Z,42.37
2018-05-26T13:13:00.393Z,42.18
2018-05-26T13:15:28.870Z,41.53
2018-05-26T13:17:57.584Z,39.87
2018-05-26T13:20:26.121Z,40.63
2018-05-26T13:22:54.523Z,39.32
2018-05-26T13:25:22.961Z,40.41
2018-05-26T13:27:51.359Z,40.71
2018-05-26T13:30:19.748Z,41.42
2018-05-26T13:32:48.102Z,38.92
2018-05-26T13:35:16.476Z,39.30
2018-05-26T13:37:44.812Z,39.11
2018-05-26T13:40:13.157Z,39.41
2018-05-26T13:42:41.533Z,40.82
2018-05-26T13:45:09.916Z,40.11
2018-05-26T13:47:38.319Z,38.47
2018-05-26T13:50:06.716Z,38.36
2018-05-26T13:52:41.697Z,39.98
2018-05-26T13:55:10.152Z,39.41
2018-05-26T13:57:38.474Z,39.22
2018-05-26T14:00:06.838Z,38.01
2018-05-26T14:02:35.256Z,38.11
2018-05-26T14:05:03.647Z,37.57
2018-05-26T14:07:32.210Z,37.72
2018-05-26T14:10:00.678Z,37.29
2018-05-26T14:12:29.454Z,36.94
2018-05-26T14:14:57.783Z,37.19
2018-05-26T14:17:26.207Z,37.61
2018-05-26T14:20:00.932Z,37.08
2018-05-26T14:22:29.341Z,37.53
2018-05-26T14:25:01.109Z,38.25
2018-05-26T14:27:29.741Z,37.03
2018-05-26T14:29:59.475Z,37.08
2018-05-26T14:32:27.881Z,37.69
2018-05-26T14:34:56.296Z,36.77
2018-05-26T14:37:24.692Z,36.82
2018-05-26T14:39:53.040Z,36.83
2018-05-26T14:42:21.360Z,37.39
2018-05-26T14:44:49.786Z,38.02
2018-05-26T14:47:18.119Z,37.70
2018-05-26T14:49:46.498Z,36.95
2018-05-26T14:52:14.809Z,36.42
2018-05-26T14:54:43.188Z,39.10
2018-05-26T14:57:11.514Z,37.45
2018-05-26T14:59:39.864Z,36.81
2018-05-26T15:02:08.167Z,37.29
2018-05-26T15:04:36.563Z,37.17
2018-05-26T15:07:04.954Z,36.80
2018-05-26T15:09:33.345Z,36.27
2018-05-26T15:12:01.956Z,36.71
2018-05-26T15:14:30.286Z,36.00
2018-05-26T15:16:58.642Z,36.75
2018-05-26T15:22:36.557Z,36.46
2018-05-26T15:25:04.931Z,36.14
2018-05-26T15:27:33.292Z,34.67
2018-05-26T15:30:01.627Z,35.86
2018-05-26T15:32:29.960Z,36.93
2018-05-26T15:34:58.395Z,36.16
2018-05-26T15:37:26.776Z,37.10
2018-05-26T15:39:55.875Z,36.38
2018-05-26T15:42:24.250Z,37.27
2018-05-26T15:44:52.581Z,36.81
2018-05-26T15:47:20.935Z,36.33
2018-05-26T15:49:49.302Z,35.43
2018-05-26T15:52:18.375Z,36.04
2018-05-26T15:54:46.826Z,35.22
2018-05-26T15:57:15.203Z,35.54
2018-05-26T15:59:43.544Z,36.21
2018-05-26T16:02:11.883Z,34.83
2018-05-26T16:04:40.215Z,34.83
2018-05-26T16:07:08.619Z,35.21
2018-05-26T16:09:36.993Z,35.10
2018-05-26T16:12:05.295Z,35.34
2018-05-26T16:14:33.611Z,35.77
2018-05-26T16:17:01.946Z,35.58
2018-05-26T16:19:30.252Z,35.33
2018-05-26T16:21:58.623Z,35.06
2018-05-26T16:24:26.989Z,35.47
2018-05-26T16:26:56.431Z,35.27
2018-05-26T16:29:24.859Z,35.76
2018-05-26T16:31:53.959Z,35.52
2018-05-26T16:34:22.297Z,34.66
2018-05-26T16:36:50.630Z,35.27
2018-05-26T16:39:18.952Z,36.15
2018-05-26T16:41:47.366Z,35.99
2018-05-26T16:44:15.696Z,36.40
2018-05-26T16:46:44.069Z,35.83
2018-05-26T16:49:12.407Z,35.39
2018-05-26T16:51:40.733Z,36.90
2018-05-26T16:54:09.091Z,35.55
2018-05-26T16:56:37.405Z,36.16
2018-05-26T16:59:08.262Z,35.77
2018-05-26T17:01:36.584Z,35.73
2018-05-26T17:04:04.929Z,35.70
2018-05-26T17:06:33.266Z,35.39
2018-05-26T17:09:01.612Z,36.52
2018-05-26T17:11:29.972Z,35.57
2018-05-26T17:13:58.289Z,37.17
2018-05-26T17:16:26.669Z,37.49
2018-05-26T17:18:55.060Z,35.91
2018-05-26T17:21:23.532Z,36.32
2018-05-26T17:23:52.620Z,35.99
2018-05-26T17:26:20.998Z,35.93
2018-05-26T17:28:49.354Z,36.75
2018-05-26T17:31:17.683Z,37.13
2018-05-26T17:33:46.032Z,36.04
2018-05-26T17:36:14.861Z,37.83
2018-05-26T17:38:43.222Z,37.57
2018-05-26T17:41:11.541Z,37.65
2018-05-26T17:43:39.861Z,37.08
2018-05-26T17:46:08.267Z,37.83
2018-05-26T17:48:36.670Z,37.96
2018-05-26T17:51:04.997Z,37.75
2018-05-26T17:53:33.333Z,38.22
2018-05-26T17:56:01.761Z,36.58
2018-05-26T17:58:30.097Z,37.75
2018-05-26T18:00:58.431Z,37.63
2018-05-26T18:03:26.770Z,36.98
2018-05-26T18:05:55.087Z,37.66
2018-05-26T18:08:23.463Z,38.45
2018-05-26T18:10:53.113Z,38.64
2018-05-26T18:13:21.507Z,37.84
2018-05-26T18:15:49.895Z,38.22
2018-05-26T18:18:18.389Z,38.26
2018-05-26T18:20:46.799Z,38.03
2018-05-26T18:23:15.124Z,37.41
2018-05-26T18:25:43.466Z,38.57
2018-05-26T18:28:11.787Z,38.73
2018-05-26T18:30:40.141Z,38.63
2018-05-26T18:33:08.462Z,38.68
2018-05-26T18:35:37.543Z,39.11
2018-05-26T18:38:05.993Z,39.23
2018-05-26T18:40:34.493Z,38.69
2018-05-26T18:43:02.831Z,39.23
2018-05-26T18:45:31.148Z,39.95
2018-05-26T18:47:59.484Z,39.36
2018-05-26T18:50:31.799Z,39.96
2018-05-26T18:53:03.091Z,40.70
2018-05-26T18:55:31.408Z,41.53
2018-05-26T18:57:59.747Z,40.17
2018-05-26T19:00:28.063Z,41.41
2018-05-26T19:02:56.415Z,40.15
2018-05-26T19:05:24.750Z,40.75
2018-05-26T19:07:53.182Z,41.70
2018-05-26T19:10:21.515Z,41.23
2018-05-26T19:12:49.904Z,42.35
2018-05-26T19:15:18.235Z,43.60
2018-05-26T19:17:46.552Z,43.16
2018-05-26T19:20:14.893Z,43.31
2018-05-26T19:22:43.216Z,44.06
2018-05-26T19:25:11.547Z,44.32
2018-05-26T19:27:40.629Z,44.64
2018-05-26T19:30:08.979Z,44.89
2018-05-26T19:32:37.295Z,45.32
2018-05-26T19:35:05.620Z,44.64
2018-05-26T19:37:33.955Z,45.79
2018-05-26T19:40:02.288Z,44.84
2018-05-26T19:42:30.622Z,44.08
2018-05-26T19:44:58.984Z,46.06
2018-05-26T19:47:27.327Z,46.25
2018-05-26T19:49:55.668Z,47.02
2018-05-26T19:52:24.000Z,46.43
2018-05-26T19:54:52.318Z,47.17
2018-05-26T19:57:20.639Z,46.61
2018-05-26T19:59:48.955Z,46.04
2018-05-26T20:02:17.270Z,46.47
2018-05-26T20:04:45.576Z,45.22
2018-05-26T20:07:13.924Z,46.65
2018-05-26T20:09:42.264Z,47.91
2018-05-26T20:12:10.642Z,46.72
2018-05-26T20:14:38.999Z,46.64
2018-05-26T20:17:07.334Z,48.72
2018-05-26T20:19:35.740Z,48.32
2018-05-26T20:22:04.083Z,46.99
2018-05-26T20:24:32.411Z,47.61
2018-05-26T20:27:00.760Z,48.01
2018-05-26T20:29:29.131Z,48.13
2018-05-26T20:31:57.508Z,47.42
2018-05-26T20:34:25.980Z,48.95
2018-05-26T20:36:54.298Z,48.57
2018-05-26T20:39:23.559Z,48.46
2018-05-26T20:41:51.926Z,49.98
2018-05-26T20:44:20.274Z,49.66
2018-05-26T20:46:48.598Z,51.07
2018-05-26T20:49:17.667Z,50.10
2018-05-26T20:51:46.044Z,50.22
2018-05-26T20:54:14.354Z,48.82
2018-05-26T20:56:42.696Z,49.28
2018-05-26T20:59:11.062Z,49.23
2018-05-26T21:01:39.395Z,49.98
2018-05-26T21:04:07.760Z,50.07
2018-05-26T21:06:36.128Z,49.29
2018-05-26T21:09:05.138Z,50.99
2018-05-26T21:11:33.462Z,50.04
2018-05-26T21:14:01.844Z,50.35
2018-05-26T21:16:30.163Z,50.88
2018-05-26T21:18:58.554Z,50.62
2018-05-26T21:21:26.911Z,50.26
2018-05-26T21:23:55.239Z,50.65
2018-05-26T21:26:23.637Z,49.71
2018-05-26T21:28:51.983Z,50.97
2018-05-26T21:31:21.135Z,50.72
2018-05-26T21:33:49.466Z,52.16
2018-05-26T21:36:17.842Z,53.12
2018-05-26T21:38:46.199Z,52.64
2018-05-26T21:41:14.533Z,53.59
2018-05-26T21:43:42.872Z,53.25
2018-05-26T21:46:11.999Z,54.15
2018-05-26T21:48:40.319Z,53.19
2018-05-26T21:51:08.644Z,54.32
2018-05-26T21:53:36.997Z,53.75
2018-05-26T21:56:05.374Z,54.95
2018-05-26T21:58:33.699Z,54.22
2018-05-26T22:01:02.019Z,54.64
2018-05-26T22:03:31.167Z,55.62
2018-05-26T22:05:59.488Z,55.91
2018-05-26T22:08:27.823Z,54.75
2018-05-26T22:10:56.907Z,54.97
2018-05-26T22:13:25.271Z,54.91
2018-05-26T22:15:53.657Z,56.03
2018-05-26T22:18:22.025Z,56.51
2018-05-26T22:20:50.333Z,56.00
2018-05-26T22:23:18.677Z,56.63
2018-05-26T22:25:47.003Z,56.05
2018-05-26T22:28:15.347Z,56.25
2018-05-26T22:30:43.686Z,57.37
2018-05-26T22:33:12.015Z,56.77
2018-05-26T22:35:40.390Z,57.27
2018-05-26T22:38:08.723Z,57.51
2018-05-26T22:40:37.039Z,57.70
2018-05-26T22:43:05.376Z,58.30
2018-05-26T22:45:33.725Z,59.57
2018-05-26T22:48:02.055Z,57.84
2018-05-26T22:50:30.379Z,57.77
2018-05-26T22:52:58.716Z,57.45
2018-05-26T22:55:27.058Z,58.88
2018-05-26T22:57:55.428Z,59.16
2018-05-26T23:00:27.643Z,58.84
2018-05-26T23:02:56.043Z,58.52
2018-05-26T23:05:24.367Z,57.75
2018-05-26T23:07:52.679Z,59.51
2018-05-26T23:10:21.072Z,58.59
2018-05-26T23:12:50.117Z,57.18
2018-05-26T23:15:19.466Z,58.84
2018-05-26T23:17:47.803Z,59.92
2018-05-26T23:20:16.160Z,58.89
2018-05-26T23:22:44.479Z,59.86
2018-05-26T23:25:12.815Z,59.53
2018-05-26T23:27:41.183Z,62.03
2018-05-26T23:30:09.567Z,59.76
2018-05-26T23:32:37.954Z,57.67
2018-05-26T23:35:06.342Z,58.97
2018-05-26T23:37:34.730Z,58.90
2018-05-26T23:40:03.043Z,60.60
2018-05-26T23:42:31.443Z,62.79
2018-05-26T23:44:59.748Z,65.18
2018-05-26T23:47:28.120Z,65.23
2018-05-26T23:50:03.692Z,63.11
2018-05-26T23:52:32.083Z,60.57
2018-05-26T23:55:00.419Z,59.01
2018-05-26T23:57:28.787Z,58.50
2018-05-26T23:59:57.107Z,58.98
